Time;durP1;ratioP1;P1;durP2;ratioP2;P2;SDS_P1;SDS_P2;PMS_P1;PMS_P2;Temp;Humidity;BMP_temperature;BMP_pressure;BME280_temperature;BME280_humidity;BME280_pressure;Samples;Min_cycle;Max_cycle;Signal;HPM_P1;HPM_P2
2021/05/25 00:01:25;;;;;;;3.33;1.25;;;;;;;;;;5054383;28;20037;-73
2021/05/25 00:03:50;;;;;;;2.72;1.30;;;;;;;;;;5053320;28;20060;-73
2021/05/25 00:06:16;;;;;;;4.30;1.38;;;;;;;;;;5054441;28;20040;-73
2021/05/25 00:08:41;;;;;;;4.90;1.45;;;;;;;;;;5036211;28;20478;-73
2021/05/25 00:11:07;;;;;;;4.70;1.45;;;;;;;;;;5053482;28;20078;-73
2021/05/25 00:13:33;;;;;;;1.63;1.08;;;;;;;;;;5053776;28;20485;-73
2021/05/25 00:15:59;;;;;;;2.15;1.10;;;;;;;;;;5054099;28;20132;-73
2021/05/25 00:18:24;;;;;;;3.95;1.67;;;;;;;;;;5053944;28;20115;-73
2021/05/25 00:20:50;;;;;;;3.78;1.20;;;;;;;;;;5054180;28;20135;-73
2021/05/25 00:23:15;;;;;;;3.50;1.20;;;;;;;;;;5054081;28;20041;-73
2021/05/25 00:25:42;;;;;;;1.58;1.15;;;;;;;;;;5053668;28;20041;-73
2021/05/25 00:28:07;;;;;;;2.13;1.13;;;;;;;;;;5035133;28;20025;-73
2021/05/25 00:30:33;;;;;;;2.53;1.25;;;;;;;;;;5053996;28;20498;-73
2021/05/25 00:32:58;;;;;;;4.30;1.80;;;;;;;;;;5053729;28;20072;-73
2021/05/25 00:35:25;;;;;;;3.28;1.20;;;;;;;;;;5035855;28;20138;-73
2021/05/25 00:37:51;;;;;;;1.70;0.88;;;;;;;;;;5053394;28;20148;-73
2021/05/25 00:40:16;;;;;;;2.47;1.15;;;;;;;;;;5052760;28;20116;-73
2021/05/25 00:42:44;;;;;;;2.10;0.95;;;;;;;;;;5053609;28;20406;-73
2021/05/25 00:45:10;;;;;;;3.20;0.70;;;;;;;;;;5053718;28;20044;-73
2021/05/25 00:47:37;;;;;;;0.82;0.65;;;;;;;;;;5053210;28;20471;-73
2021/05/25 00:50:18;;;;;;;0.65;0.65;;;;;;;;;;5053578;28;20043;-73
2021/05/25 00:52:52;;;;;;;1.58;0.90;;;;;;;;;;5053350;28;20040;-73
2021/05/25 00:55:25;;;;;;;1.58;0.90;;;;;;;;;;5035155;28;20497;-73
2021/05/25 00:57:52;;;;;;;1.08;0.60;;;;;;;;;;5053219;28;20115;-73
2021/05/25 01:00:21;;;;;;;1.13;0.68;;;;;;;;;;5035589;28;20047;-73
2021/05/25 01:02:46;;;;;;;3.10;0.90;;;;;;;;;;5053389;28;20119;-73
2021/05/25 01:05:14;;;;;;;1.30;0.68;;;;;;;;;;5053247;28;20057;-73
2021/05/25 01:07:41;;;;;;;2.60;0.93;;;;;;;;;;5035239;28;20025;-73
2021/05/25 01:10:08;;;;;;;1.73;0.90;;;;;;;;;;5034248;28;20029;-72
2021/05/25 01:12:35;;;;;;;1.02;0.55;;;;;;;;;;5053089;28;20087;-73
2021/05/25 01:15:06;;;;;;;1.08;0.60;;;;;;;;;;5053017;28;20065;-73
2021/05/25 01:17:33;;;;;;;1.02;0.63;;;;;;;;;;5053019;28;20037;-72
2021/05/25 01:20:03;;;;;;;1.00;0.75;;;;;;;;;;5034921;28;20037;-73
2021/05/25 01:22:29;;;;;;;1.73;0.75;;;;;;;;;;5053013;28;20041;-73
2021/05/25 01:24:54;;;;;;;2.70;0.95;;;;;;;;;;5053190;28;20044;-73
2021/05/25 01:27:20;;;;;;;2.92;0.52;;;;;;;;;;5052719;28;20063;-72
2021/05/25 01:29:47;;;;;;;1.15;0.60;;;;;;;;;;5035020;28;20104;-73
2021/05/25 01:32:13;;;;;;;1.45;0.52;;;;;;;;;;5052895;28;20032;-73
2021/05/25 01:34:39;;;;;;;1.95;1.00;;;;;;;;;;5052704;28;20053;-73
2021/05/25 01:37:04;;;;;;;1.90;0.55;;;;;;;;;;5052760;28;20056;-73
2021/05/25 01:39:30;;;;;;;3.47;0.80;;;;;;;;;;5052606;28;20040;-73
2021/05/25 01:41:56;;;;;;;0.80;0.63;;;;;;;;;;5052333;28;20486;-72
2021/05/25 01:44:22;;;;;;;3.67;0.50;;;;;;;;;;5052933;28;20037;-74
2021/05/25 01:46:49;;;;;;;2.10;0.77;;;;;;;;;;5052771;28;20036;-72
2021/05/25 01:49:19;;;;;;;2.33;0.75;;;;;;;;;;5052699;28;20036;-73
2021/05/25 01:51:51;;;;;;;1.70;0.90;;;;;;;;;;5052639;28;20033;-72
2021/05/25 01:54:18;;;;;;;0.63;0.63;;;;;;;;;;5052591;28;20041;-72
2021/05/25 01:56:44;;;;;;;0.75;0.70;;;;;;;;;;5052531;28;20107;-72
2021/05/25 01:59:10;;;;;;;2.00;0.82;;;;;;;;;;5052602;28;20374;-73
2021/05/25 02:01:36;;;;;;;0.50;0.50;;;;;;;;;;5052563;28;20040;-73
2021/05/25 02:04:02;;;;;;;1.13;0.60;;;;;;;;;;5052639;28;20104;-73
2021/05/25 02:06:28;;;;;;;0.45;0.45;;;;;;;;;;5052557;28;20029;-73
2021/05/25 02:08:55;;;;;;;1.33;0.70;;;;;;;;;;5052518;28;20040;-73
2021/05/25 02:11:20;;;;;;;0.88;0.52;;;;;;;;;;5051587;28;20048;-72
2021/05/25 02:13:46;;;;;;;2.33;1.20;;;;;;;;;;5052056;28;20036;-73
2021/05/25 02:16:14;;;;;;;1.20;0.70;;;;;;;;;;5052394;28;20120;-73
2021/05/25 02:18:43;;;;;;;1.10;0.80;;;;;;;;;;5052622;28;20044;-73
2021/05/25 02:21:09;;;;;;;2.72;0.73;;;;;;;;;;5052636;28;20045;-72
2021/05/25 02:23:35;;;;;;;1.33;0.60;;;;;;;;;;5034753;28;20521;-73
2021/05/25 02:26:01;;;;;;;1.70;0.75;;;;;;;;;;5052537;28;20375;-72
2021/05/25 02:28:27;;;;;;;2.03;0.82;;;;;;;;;;5052141;28;20048;-73
2021/05/25 02:30:53;;;;;;;0.65;0.65;;;;;;;;;;5052158;28;20045;-72
2021/05/25 02:33:20;;;;;;;1.75;0.70;;;;;;;;;;5052122;28;20114;-74
2021/05/25 02:35:49;;;;;;;0.85;0.55;;;;;;;;;;5052395;28;20117;-73
2021/05/25 02:38:14;;;;;;;4.25;0.77;;;;;;;;;;5052193;28;20099;-73
2021/05/25 02:40:45;;;;;;;0.52;0.52;;;;;;;;;;5052359;28;20037;-73
2021/05/25 02:43:12;;;;;;;1.58;0.57;;;;;;;;;;5051728;28;20048;-73
2021/05/25 02:45:38;;;;;;;0.73;0.50;;;;;;;;;;5052297;28;20041;-73
2021/05/25 02:48:04;;;;;;;1.95;0.73;;;;;;;;;;5052309;28;20390;-73
2021/05/25 02:50:30;;;;;;;1.88;0.77;;;;;;;;;;5053576;28;20124;-73
2021/05/25 02:52:56;;;;;;;2.38;1.15;;;;;;;;;;5055675;28;20120;-73
2021/05/25 02:55:26;;;;;;;2.60;0.75;;;;;;;;;;5055779;28;20123;-74
2021/05/25 02:57:52;;;;;;;1.15;0.73;;;;;;;;;;5055322;28;20462;-74
2021/05/25 03:00:33;;;;;;;3.40;0.80;;;;;;;;;;5055779;28;20033;-74
2021/05/25 03:02:59;;;;;;;4.00;0.70;;;;;;;;;;5055854;28;20760;-74
2021/05/25 03:05:25;;;;;;;2.05;0.75;;;;;;;;;;5055872;28;20056;-74
2021/05/25 03:07:56;;;;;;;1.30;0.57;;;;;;;;;;5055459;28;20048;-74
2021/05/25 03:10:24;;;;;;;1.27;0.70;;;;;;;;;;5055339;28;20082;-75
2021/05/25 03:12:50;;;;;;;1.83;0.73;;;;;;;;;;5055038;28;20108;-74
2021/05/25 03:15:20;;;;;;;1.30;0.77;;;;;;;;;;5055427;28;20071;-74
2021/05/25 03:17:46;;;;;;;2.78;0.73;;;;;;;;;;5055344;28;20041;-74
2021/05/25 03:20:13;;;;;;;1.17;0.60;;;;;;;;;;5054931;28;20399;-74
2021/05/25 03:22:39;;;;;;;1.70;0.70;;;;;;;;;;5055161;28;20071;-74
2021/05/25 03:25:07;;;;;;;1.85;0.73;;;;;;;;;;5054661;28;20452;-74
2021/05/25 03:27:32;;;;;;;0.73;0.73;;;;;;;;;;5055004;28;20029;-74
2021/05/25 03:29:58;;;;;;;4.50;0.90;;;;;;;;;;5037629;28;20587;-73
2021/05/25 03:32:23;;;;;;;3.53;0.68;;;;;;;;;;5055237;28;20086;-73
2021/05/25 03:34:49;;;;;;;1.33;0.57;;;;;;;;;;5055349;28;20041;-73
2021/05/25 03:37:14;;;;;;;1.52;0.88;;;;;;;;;;5055032;28;20069;-73
2021/05/25 03:39:39;;;;;;;1.02;0.70;;;;;;;;;;5037272;28;20045;-73
2021/05/25 03:42:06;;;;;;;2.88;0.98;;;;;;;;;;5054777;28;20048;-72
2021/05/25 03:44:31;;;;;;;3.17;0.95;;;;;;;;;;5055025;28;20561;-73
2021/05/25 03:46:57;;;;;;;2.28;0.50;;;;;;;;;;5055018;28;20131;-73
2021/05/25 03:49:22;;;;;;;2.70;1.17;;;;;;;;;;5054874;28;20060;-73
2021/05/25 03:51:48;;;;;;;1.42;1.02;;;;;;;;;;5054740;28;20040;-72
2021/05/25 03:54:27;;;;;;;2.08;0.80;;;;;;;;;;5054158;28;20138;-73
2021/05/25 03:56:56;;;;;;;1.77;0.80;;;;;;;;;;5054464;28;20061;-73
2021/05/25 03:59:22;;;;;;;3.88;1.10;;;;;;;;;;5054734;28;20052;-72
2021/05/25 04:01:47;;;;;;;3.38;1.00;;;;;;;;;;5053672;28;20068;-72
2021/05/25 04:04:13;;;;;;;5.57;2.45;;;;;;;;;;5054553;28;20029;-72
2021/05/25 04:06:39;;;;;;;6.60;1.90;;;;;;;;;;5036666;28;20033;-71
2021/05/25 04:09:05;;;;;;;2.95;1.13;;;;;;;;;;5054778;28;20038;-72
2021/05/25 04:11:31;;;;;;;1.38;0.93;;;;;;;;;;5054378;28;20379;-72
2021/05/25 04:13:57;;;;;;;3.63;0.95;;;;;;;;;;5054367;28;20021;-73
2021/05/25 04:16:22;;;;;;;1.33;0.70;;;;;;;;;;5054263;28;20516;-72
2021/05/25 04:18:48;;;;;;;3.10;0.90;;;;;;;;;;5054211;28;20043;-73
2021/05/25 04:21:13;;;;;;;8.68;1.00;;;;;;;;;;5053448;28;20079;-71
2021/05/25 04:23:39;;;;;;;1.58;0.88;;;;;;;;;;5054179;28;20471;-72
2021/05/25 04:26:04;;;;;;;4.93;1.10;;;;;;;;;;5054213;28;20040;-72
2021/05/25 04:28:30;;;;;;;3.13;0.80;;;;;;;;;;5054074;28;20499;-74
2021/05/25 04:30:55;;;;;;;2.25;1.08;;;;;;;;;;5036297;28;20048;-73
2021/05/25 04:33:21;;;;;;;1.65;0.88;;;;;;;;;;5053870;28;20048;-73
2021/05/25 04:35:47;;;;;;;3.33;1.35;;;;;;;;;;5053608;28;20041;-73
2021/05/25 04:38:13;;;;;;;4.00;0.93;;;;;;;;;;5053753;28;20040;-75
2021/05/25 04:40:41;;;;;;;3.67;0.90;;;;;;;;;;5053485;28;20041;-74
2021/05/25 04:43:08;;;;;;;5.78;1.17;;;;;;;;;;5053735;28;20051;-75
2021/05/25 04:45:33;;;;;;;1.92;0.95;;;;;;;;;;5053214;28;20102;-75
2021/05/25 04:47:59;;;;;;;1.92;0.80;;;;;;;;;;5053357;28;20037;-75
2021/05/25 04:50:24;;;;;;;3.50;1.10;;;;;;;;;;5053582;28;20068;-75
2021/05/25 04:52:50;;;;;;;1.10;0.73;;;;;;;;;;5053721;28;20044;-75
2021/05/25 04:55:18;;;;;;;2.22;0.80;;;;;;;;;;5035586;28;20045;-75
2021/05/25 04:57:44;;;;;;;1.75;1.15;;;;;;;;;;5053554;28;20029;-75
2021/05/25 05:00:14;;;;;;;3.10;0.90;;;;;;;;;;5053572;28;20582;-75
2021/05/25 05:02:40;;;;;;;2.15;1.00;;;;;;;;;;5053234;28;20033;-75
2021/05/25 05:05:07;;;;;;;2.35;0.93;;;;;;;;;;5053577;28;20021;-74
2021/05/25 05:07:33;;;;;;;2.17;1.08;;;;;;;;;;5053483;28;20033;-75
2021/05/25 05:09:59;;;;;;;3.78;0.77;;;;;;;;;;5034817;28;20036;-75
2021/05/25 05:12:26;;;;;;;2.38;0.82;;;;;;;;;;5053065;28;20029;-75
2021/05/25 05:14:52;;;;;;;0.85;0.60;;;;;;;;;;5053421;28;20061;-74
2021/05/25 05:17:18;;;;;;;2.78;0.80;;;;;;;;;;5053280;28;20032;-75
2021/05/25 05:19:43;;;;;;;4.07;0.70;;;;;;;;;;5035540;28;20040;-74
2021/05/25 05:22:09;;;;;;;1.10;1.02;;;;;;;;;;5035327;28;20390;-74
2021/05/25 05:24:35;;;;;;;0.80;0.70;;;;;;;;;;5053330;28;20094;-74
2021/05/25 05:27:00;;;;;;;0.98;0.57;;;;;;;;;;5053060;28;20394;-74
2021/05/25 05:29:26;;;;;;;3.10;0.68;;;;;;;;;;5035432;28;20037;-74
2021/05/25 05:31:51;;;;;;;2.13;0.50;;;;;;;;;;5034799;28;20061;-74
2021/05/25 05:34:16;;;;;;;1.58;0.68;;;;;;;;;;5052818;28;20096;-74
2021/05/25 05:36:42;;;;;;;2.20;0.75;;;;;;;;;;5052798;28;20049;-74
2021/05/25 05:39:07;;;;;;;3.47;1.15;;;;;;;;;;5053249;28;20107;-74
2021/05/25 05:41:33;;;;;;;4.68;1.25;;;;;;;;;;5052617;28;20399;-74
2021/05/25 05:43:58;;;;;;;1.08;0.50;;;;;;;;;;5052615;28;20036;-74
2021/05/25 05:46:27;;;;;;;1.15;0.70;;;;;;;;;;5035210;28;20044;-75
2021/05/25 05:48:52;;;;;;;1.65;0.50;;;;;;;;;;5051897;28;20041;-75
2021/05/25 05:51:18;;;;;;;2.30;0.60;;;;;;;;;;5052990;28;20048;-75
2021/05/25 05:53:44;;;;;;;2.05;0.60;;;;;;;;;;5052739;28;20037;-74
2021/05/25 05:56:09;;;;;;;4.93;0.73;;;;;;;;;;5052458;28;20025;-74
2021/05/25 05:58:35;;;;;;;1.05;0.70;;;;;;;;;;5052857;28;20352;-74
2021/05/25 06:01:00;;;;;;;2.55;0.98;;;;;;;;;;5052771;28;20044;-74
2021/05/25 06:03:26;;;;;;;1.10;0.70;;;;;;;;;;5035049;28;20029;-76
2021/05/25 06:05:51;;;;;;;1.02;0.45;;;;;;;;;;5035388;28;20494;-76
2021/05/25 06:08:17;;;;;;;1.90;0.60;;;;;;;;;;5034965;28;20029;-76
2021/05/25 06:10:50;;;;;;;0.40;0.40;;;;;;;;;;5052755;28;20029;-75
2021/05/25 06:13:17;;;;;;;2.38;0.75;;;;;;;;;;5034656;28;20479;-76
2021/05/25 06:15:43;;;;;;;2.35;0.60;;;;;;;;;;5052715;28;20049;-77
2021/05/25 06:18:08;;;;;;;1.23;0.45;;;;;;;;;;5052665;28;20525;-76
2021/05/25 06:20:34;;;;;;;1.52;0.55;;;;;;;;;;5052975;28;20064;-76
2021/05/25 06:22:59;;;;;;;0.75;0.30;;;;;;;;;;5034779;28;20104;-77
2021/05/25 06:25:24;;;;;;;1.02;0.60;;;;;;;;;;5054369;28;20470;-76
2021/05/25 06:27:50;;;;;;;1.65;0.50;;;;;;;;;;5056250;28;20409;-77
2021/05/25 06:30:16;;;;;;;1.52;0.52;;;;;;;;;;5056543;28;20047;-77
2021/05/25 06:32:42;;;;;;;2.88;0.57;;;;;;;;;;5056189;28;20041;-77
2021/05/25 06:35:08;;;;;;;2.92;0.80;;;;;;;;;;5056248;28;20049;-76
2021/05/25 06:37:33;;;;;;;3.33;0.75;;;;;;;;;;5056036;28;20378;-76
2021/05/25 06:39:59;;;;;;;2.15;0.68;;;;;;;;;;5056321;28;20033;-76
2021/05/25 06:42:24;;;;;;;1.27;0.50;;;;;;;;;;5055864;28;20407;-77
2021/05/25 06:44:50;;;;;;;2.28;0.50;;;;;;;;;;5056049;28;20029;-75
2021/05/25 06:47:15;;;;;;;1.00;0.47;;;;;;;;;;5038210;28;20076;-75
2021/05/25 06:49:40;;;;;;;1.85;0.70;;;;;;;;;;5038157;28;20033;-75
2021/05/25 06:52:07;;;;;;;1.33;0.70;;;;;;;;;;5037586;28;20043;-75
2021/05/25 06:54:33;;;;;;;2.33;0.63;;;;;;;;;;5056120;28;20036;-76
2021/05/25 06:56:59;;;;;;;0.68;0.30;;;;;;;;;;5055681;28;20049;-77
2021/05/25 06:59:24;;;;;;;5.90;1.02;;;;;;;;;;5056632;28;20036;-77
2021/05/25 07:01:50;;;;;;;1.35;0.50;;;;;;;;;;5055642;28;20440;-75
2021/05/25 07:04:15;;;;;;;0.85;0.60;;;;;;;;;;5055971;28;20047;-75
2021/05/25 07:06:41;;;;;;;0.88;0.60;;;;;;;;;;5055536;28;20037;-75
2021/05/25 07:09:06;;;;;;;2.47;0.63;;;;;;;;;;5055745;28;20099;-75
2021/05/25 07:11:32;;;;;;;1.17;0.52;;;;;;;;;;5055251;28;20045;-75
2021/05/25 07:13:58;;;;;;;2.03;0.60;;;;;;;;;;5055226;28;20167;-74
2021/05/25 07:16:24;;;;;;;3.25;0.60;;;;;;;;;;5055325;28;20041;-76
2021/05/25 07:18:49;;;;;;;1.27;0.57;;;;;;;;;;5060331;28;20045;-76
2021/05/25 07:21:14;;;;;;;1.10;0.38;;;;;;;;;;5055635;28;20083;-74
2021/05/25 07:23:40;;;;;;;1.30;0.50;;;;;;;;;;5054513;28;20025;-75
2021/05/25 07:26:05;;;;;;;0.73;0.25;;;;;;;;;;5055863;28;20029;-75
2021/05/25 07:28:31;;;;;;;1.70;0.88;;;;;;;;;;5055137;28;20041;-76
2021/05/25 07:30:57;;;;;;;2.80;0.80;;;;;;;;;;5056551;28;20048;-76
2021/05/25 07:33:24;;;;;;;6.65;0.93;;;;;;;;;;5054869;28;20474;-74
2021/05/25 07:35:49;;;;;;;1.02;0.50;;;;;;;;;;5037182;28;20089;-73
2021/05/25 07:38:15;;;;;;;1.95;0.70;;;;;;;;;;5054785;28;20040;-74
2021/05/25 07:40:42;;;;;;;5.03;1.30;;;;;;;;;;5054318;28;20036;-73
2021/05/25 07:43:08;;;;;;;10.27;2.60;;;;;;;;;;5054902;28;20075;-73
2021/05/25 07:45:34;;;;;;;4.28;1.00;;;;;;;;;;5054437;28;20499;-73
2021/05/25 07:47:59;;;;;;;2.53;1.05;;;;;;;;;;5035684;28;20470;-71
2021/05/25 07:50:25;;;;;;;4.13;1.20;;;;;;;;;;5054882;28;20043;-75
2021/05/25 07:52:55;;;;;;;6.55;1.02;;;;;;;;;;5055079;28;20033;-77
2021/05/25 07:55:25;;;;;;;6.25;0.65;;;;;;;;;;5054574;28;20037;-77
2021/05/25 07:57:52;;;;;;;0.60;0.52;;;;;;;;;;5054134;28;20060;-76
2021/05/25 08:00:18;;;;;;;1.30;0.47;;;;;;;;;;5055215;28;20035;-75
2021/05/25 08:02:44;;;;;;;2.42;0.52;;;;;;;;;;5035704;28;20032;-75
2021/05/25 08:05:12;;;;;;;0.95;0.30;;;;;;;;;;5054598;28;20119;-75
2021/05/25 08:07:37;;;;;;;0.65;0.65;;;;;;;;;;5054226;28;20059;-75
2021/05/25 08:10:05;;;;;;;0.20;0.20;;;;;;;;;;5038990;28;20037;-80
2021/05/25 08:12:31;;;;;;;1.88;0.50;;;;;;;;;;5036555;28;20036;-76
2021/05/25 08:14:59;;;;;;;0.85;0.30;;;;;;;;;;5053423;28;20033;-77
2021/05/25 08:20:16;;;;;;;0.52;0.30;;;;;;;;;;5029370;28;20052;-73
2021/05/25 08:22:46;;;;;;;0.30;0.20;;;;;;;;;;5054688;28;20044;-75
2021/05/25 08:25:13;;;;;;;1.85;0.43;;;;;;;;;;5054358;28;20033;-75
2021/05/25 08:27:39;;;;;;;1.13;0.30;;;;;;;;;;5054298;28;20025;-75
2021/05/25 08:30:06;;;;;;;1.35;0.50;;;;;;;;;;5053592;28;20548;-75
2021/05/25 08:32:32;;;;;;;0.68;0.28;;;;;;;;;;5054240;28;20037;-75
2021/05/25 08:34:57;;;;;;;0.80;0.50;;;;;;;;;;5053105;28;20043;-75
2021/05/25 08:37:23;;;;;;;4.28;0.80;;;;;;;;;;5053965;28;20447;-75
2021/05/25 08:39:48;;;;;;;2.72;0.70;;;;;;;;;;5053973;28;20041;-75
2021/05/25 08:42:14;;;;;;;0.75;0.30;;;;;;;;;;5053704;28;20375;-75
2021/05/25 08:44:39;;;;;;;1.00;0.55;;;;;;;;;;5053757;28;20447;-75
2021/05/25 08:47:06;;;;;;;1.67;0.25;;;;;;;;;;5035792;28;20086;-75
2021/05/25 08:49:34;;;;;;;1.02;0.40;;;;;;;;;;5053397;28;20082;-75
2021/05/25 08:52:00;;;;;;;0.75;0.57;;;;;;;;;;5052805;28;20403;-76
2021/05/25 08:54:25;;;;;;;2.25;1.48;;;;;;;;;;5053144;28;20033;-76
2021/05/25 08:56:51;;;;;;;1.02;0.50;;;;;;;;;;5035539;28;20036;-75
2021/05/25 08:59:16;;;;;;;4.13;0.60;;;;;;;;;;5052773;28;20437;-74
2021/05/25 09:01:43;;;;;;;3.25;0.47;;;;;;;;;;5036022;28;20424;-74
2021/05/25 09:04:12;;;;;;;2.92;0.60;;;;;;;;;;5053666;28;20036;-75
2021/05/25 09:06:46;;;;;;;1.90;0.28;;;;;;;;;;5053334;28;20041;-75
2021/05/25 09:09:13;;;;;;;0.90;0.25;;;;;;;;;;5053057;28;20041;-75
2021/05/25 09:12:08;;;;;;;1.10;0.25;;;;;;;;;;5035213;28;20036;-75
2021/05/25 09:14:47;;;;;;;8.82;0.40;;;;;;;;;;5053507;28;20037;-75
2021/05/25 09:17:16;;;;;;;1.88;0.57;;;;;;;;;;5053184;28;20407;-74
2021/05/25 09:19:47;;;;;;;0.47;0.30;;;;;;;;;;5035882;28;20133;-75
2021/05/25 09:22:34;;;;;;;0.63;0.40;;;;;;;;;;5053286;28;20087;-75
2021/05/25 09:25:21;;;;;;;0.20;0.20;;;;;;;;;;5035192;28;20182;-75
2021/05/25 09:27:58;;;;;;;1.23;0.50;;;;;;;;;;5034951;28;20040;-75
2021/05/25 09:30:32;;;;;;;1.52;0.25;;;;;;;;;;5053118;28;20033;-75
2021/05/25 09:33:00;;;;;;;1.05;0.30;;;;;;;;;;5035363;28;20041;-75
2021/05/25 09:35:28;;;;;;;0.82;0.38;;;;;;;;;;5052873;28;20127;-75
2021/05/25 09:37:57;;;;;;;2.47;0.47;;;;;;;;;;5052120;28;20029;-75
2021/05/25 09:40:29;;;;;;;1.08;0.45;;;;;;;;;;5052200;28;20047;-75
2021/05/25 09:43:08;;;;;;;1.85;0.30;;;;;;;;;;5035142;28;20038;-74
2021/05/25 09:45:34;;;;;;;0.55;0.30;;;;;;;;;;5053004;28;20064;-73
2021/05/25 09:48:03;;;;;;;1.00;0.40;;;;;;;;;;5052529;28;20095;-74
2021/05/25 09:50:29;;;;;;;0.32;0.28;;;;;;;;;;5052373;28;20660;-76
2021/05/25 09:53:17;;;;;;;2.28;0.30;;;;;;;;;;5052852;28;20029;-75
2021/05/25 09:55:58;;;;;;;0.10;0.10;;;;;;;;;;5052488;28;20486;-75
2021/05/25 09:58:34;;;;;;;1.50;0.20;;;;;;;;;;5052729;28;20061;-74
2021/05/25 10:01:00;;;;;;;3.08;0.50;;;;;;;;;;5056880;28;20032;-74
2021/05/25 10:03:27;;;;;;;0.40;0.20;;;;;;;;;;5057340;28;20021;-74
2021/05/25 10:05:54;;;;;;;0.88;0.30;;;;;;;;;;5041975;28;20116;-75
2021/05/25 10:08:22;;;;;;;0.10;0.10;;;;;;;;;;5024688;28;20025;-74
2021/05/25 10:10:48;;;;;;;0.35;0.35;;;;;;;;;;5055918;28;20121;-74
2021/05/25 10:13:14;;;;;;;3.67;1.55;;;;;;;;;;5038845;28;20116;-74
2021/05/25 10:15:43;;;;;;;0.20;0.20;;;;;;;;;;5056643;28;20032;-74
2021/05/25 10:20:34;;;;;;;0.10;0.10;;;;;;;;;;5056670;28;20045;-74
2021/05/25 10:23:00;;;;;;;1.38;0.32;;;;;;;;;;5056624;28;20040;-74
2021/05/25 10:25:31;;;;;;;1.17;0.15;;;;;;;;;;5056439;28;20043;-74
2021/05/25 10:27:57;;;;;;;0.30;0.10;;;;;;;;;;5056453;28;20039;-74
2021/05/25 10:30:23;;;;;;;0.98;0.30;;;;;;;;;;5056479;28;20486;-74
2021/05/25 10:32:50;;;;;;;0.38;0.32;;;;;;;;;;5056392;28;20036;-74
2021/05/25 10:35:19;;;;;;;0.10;0.10;;;;;;;;;;5055539;28;20057;-74
2021/05/25 10:38:04;;;;;;;0.32;0.10;;;;;;;;;;5056251;28;20116;-74
2021/05/25 10:40:37;;;;;;;0.38;0.30;;;;;;;;;;5037776;28;20441;-74
2021/05/25 10:43:34;;;;;;;0.30;0.30;;;;;;;;;;5038156;28;20037;-74
2021/05/25 10:46:11;;;;;;;0.32;0.20;;;;;;;;;;5056358;28;20035;-74
2021/05/25 10:49:17;;;;;;;0.30;0.30;;;;;;;;;;5037564;28;20372;-74
2021/05/25 10:51:49;;;;;;;0.60;0.20;;;;;;;;;;5038258;28;20036;-74
2021/05/25 10:54:29;;;;;;;0.20;0.20;;;;;;;;;;5056076;28;20044;-74
2021/05/25 10:56:56;;;;;;;0.75;0.20;;;;;;;;;;5055669;28;20044;-74
2021/05/25 10:59:21;;;;;;;0.30;0.30;;;;;;;;;;5038046;28;20040;-74
2021/05/25 11:01:54;;;;;;;0.20;0.10;;;;;;;;;;5038085;28;20037;-74
2021/05/25 11:04:23;;;;;;;0.60;0.32;;;;;;;;;;5054850;28;20045;-74
2021/05/25 11:06:49;;;;;;;0.17;0.17;;;;;;;;;;5055239;28;20033;-74
2021/05/25 11:09:26;;;;;;;1.00;0.40;;;;;;;;;;5054388;28;20029;-74
2021/05/25 11:12:11;;;;;;;0.30;0.20;;;;;;;;;;5055106;28;20422;-74
2021/05/25 11:14:36;;;;;;;0.45;0.28;;;;;;;;;;5055626;28;20545;-74
2021/05/25 11:17:32;;;;;;;0.20;0.10;;;;;;;;;;5055383;28;20116;-74
2021/05/25 11:20:11;;;;;;;0.47;0.17;;;;;;;;;;5038682;28;20106;-74
2021/05/25 11:22:38;;;;;;;1.20;0.20;;;;;;;;;;5037084;28;20108;-74
2021/05/25 11:25:06;;;;;;;1.15;0.40;;;;;;;;;;5037518;28;20589;-74
2021/05/25 11:27:46;;;;;;;0.65;0.20;;;;;;;;;;5055061;28;20060;-73
2021/05/25 11:30:21;;;;;;;2.45;0.40;;;;;;;;;;5055350;28;20402;-74
2021/05/25 11:32:47;;;;;;;1.75;0.38;;;;;;;;;;5055128;28;20033;-74
2021/05/25 11:35:15;;;;;;;0.13;0.03;;;;;;;;;;5055159;28;20088;-74
2021/05/25 11:37:46;;;;;;;1.05;0.30;;;;;;;;;;5054310;28;20100;-74
2021/05/25 11:40:16;;;;;;;0.22;0.20;;;;;;;;;;5037243;28;20028;-73
2021/05/25 11:42:49;;;;;;;0.38;0.38;;;;;;;;;;5054803;28;20032;-73
2021/05/25 11:45:17;;;;;;;2.95;0.70;;;;;;;;;;5054123;28;20033;-73
2021/05/25 11:47:43;;;;;;;1.10;0.30;;;;;;;;;;5055100;28;20075;-74
2021/05/25 11:50:13;;;;;;;3.55;0.70;;;;;;;;;;5054957;28;20567;-75
2021/05/25 11:52:43;;;;;;;0.70;0.30;;;;;;;;;;5054927;28;20179;-75
2021/05/25 11:55:13;;;;;;;0.28;0.28;;;;;;;;;;5054584;28;20051;-75
2021/05/25 11:57:46;;;;;;;2.42;0.20;;;;;;;;;;5054836;28;20479;-75
2021/05/25 12:00:17;;;;;;;0.85;0.30;;;;;;;;;;5036686;28;20486;-75
2021/05/25 12:02:47;;;;;;;0.45;0.28;;;;;;;;;;5053561;28;20033;-75
2021/05/25 12:05:18;;;;;;;1.35;0.40;;;;;;;;;;5054883;28;20033;-75
2021/05/25 12:07:50;;;;;;;1.05;0.50;;;;;;;;;;5054531;28;20371;-75
2021/05/25 12:10:26;;;;;;;0.75;0.20;;;;;;;;;;5054566;28;20036;-75
2021/05/25 12:12:53;;;;;;;0.10;0.10;;;;;;;;;;5053315;28;20040;-74
2021/05/25 12:15:26;;;;;;;2.30;0.65;;;;;;;;;;5054432;28;20033;-75
2021/05/25 12:18:01;;;;;;;0.85;0.77;;;;;;;;;;5054234;28;20033;-75
2021/05/25 12:20:44;;;;;;;0.87;0.70;;;;;;;;;;5053456;28;20043;-75
2021/05/25 12:23:14;;;;;;;1.17;0.70;;;;;;;;;;5053255;28;20033;-75
2021/05/25 12:25:42;;;;;;;0.57;0.50;;;;;;;;;;5054363;28;20119;-75
2021/05/25 12:28:13;;;;;;;0.73;0.70;;;;;;;;;;5054047;28;20104;-75
2021/05/25 12:30:43;;;;;;;2.17;0.88;;;;;;;;;;5054158;28;20111;-75
2021/05/25 12:33:19;;;;;;;1.25;1.08;;;;;;;;;;5053948;28;20039;-75
2021/05/25 12:35:45;;;;;;;0.90;0.75;;;;;;;;;;5053607;28;20037;-74
2021/05/25 12:38:14;;;;;;;3.13;1.20;;;;;;;;;;5036116;28;20052;-74
2021/05/25 12:40:42;;;;;;;1.58;0.90;;;;;;;;;;5053054;28;20064;-74
2021/05/25 12:43:21;;;;;;;4.97;1.23;;;;;;;;;;5070437;28;20394;-74
2021/05/25 12:45:48;;;;;;;1.77;1.27;;;;;;;;;;5070556;28;20036;-74
2021/05/25 12:48:15;;;;;;;1.55;1.10;;;;;;;;;;5070494;28;20047;-74
2021/05/25 12:50:41;;;;;;;1.30;1.20;;;;;;;;;;5070411;28;20036;-74
2021/05/25 12:53:14;;;;;;;1.73;1.20;;;;;;;;;;5070298;28;20040;-74
2021/05/25 12:56:02;;;;;;;1.88;1.10;;;;;;;;;;5069393;28;20692;-74
2021/05/25 12:58:42;;;;;;;2.08;1.20;;;;;;;;;;5070308;28;20037;-74
2021/05/25 13:01:25;;;;;;;5.10;2.03;;;;;;;;;;5069958;28;20040;-74
2021/05/25 13:03:52;;;;;;;9.85;2.50;;;;;;;;;;5070053;28;20107;-74
2021/05/25 13:06:25;;;;;;;1.50;0.98;;;;;;;;;;5070071;28;20032;-74
2021/05/25 13:08:54;;;;;;;10.05;2.90;;;;;;;;;;5068357;28;20103;-75
2021/05/25 13:11:22;;;;;;;1.80;1.10;;;;;;;;;;5048593;28;20048;-74
2021/05/25 13:13:49;;;;;;;2.28;1.20;;;;;;;;;;5050109;28;20029;-74
2021/05/25 13:16:22;;;;;;;1.80;0.93;;;;;;;;;;5050258;28;20033;-74
2021/05/25 13:18:49;;;;;;;2.40;1.48;;;;;;;;;;5049454;28;20033;-75
2021/05/25 13:21:18;;;;;;;2.13;1.25;;;;;;;;;;5049769;28;20087;-74
2021/05/25 13:23:54;;;;;;;1.50;0.95;;;;;;;;;;5049833;28;20050;-74
2021/05/25 13:26:39;;;;;;;6.28;0.90;;;;;;;;;;5049613;28;20479;-74
2021/05/25 13:29:19;;;;;;;1.40;0.77;;;;;;;;;;5049691;28;20086;-75
2021/05/25 13:31:47;;;;;;;0.80;0.43;;;;;;;;;;5049484;28;20426;-74
2021/05/25 13:34:19;;;;;;;6.00;1.30;;;;;;;;;;5049759;28;20037;-73
2021/05/25 13:36:47;;;;;;;1.67;0.68;;;;;;;;;;5048399;28;20076;-73
2021/05/25 13:39:15;;;;;;;2.28;0.88;;;;;;;;;;5050732;28;20033;-74
2021/05/25 13:41:41;;;;;;;1.80;0.73;;;;;;;;;;5068444;28;20052;-74
2021/05/25 13:44:07;;;;;;;1.33;0.70;;;;;;;;;;5068206;28;20047;-74
2021/05/25 13:46:35;;;;;;;4.43;0.75;;;;;;;;;;5069427;28;20047;-74
2021/05/25 13:49:01;;;;;;;2.20;0.77;;;;;;;;;;5069118;28;20475;-74
2021/05/25 13:51:28;;;;;;;1.67;0.77;;;;;;;;;;5069167;28;20044;-74
2021/05/25 13:53:54;;;;;;;2.40;0.95;;;;;;;;;;5059613;28;20029;-74
2021/05/25 13:56:26;;;;;;;1.92;0.90;;;;;;;;;;5055269;28;20068;-74
2021/05/25 13:58:54;;;;;;;1.33;0.95;;;;;;;;;;5055745;28;20442;-75
2021/05/25 14:03:49;;;;;;;4.57;1.05;;;;;;;;;;5055667;28;20032;-75
2021/05/25 14:06:14;;;;;;;1.33;0.90;;;;;;;;;;5055804;28;20032;-75
2021/05/25 14:08:40;;;;;;;2.25;1.02;;;;;;;;;;5055610;28;20088;-74
2021/05/25 14:11:05;;;;;;;1.48;1.00;;;;;;;;;;5055114;28;20045;-74
2021/05/25 14:13:31;;;;;;;3.00;1.08;;;;;;;;;;5054735;28;20033;-75
2021/05/25 14:15:57;;;;;;;3.30;1.10;;;;;;;;;;5055154;28;20044;-74
2021/05/25 14:18:23;;;;;;;1.77;0.80;;;;;;;;;;5055560;28;20033;-74
2021/05/25 14:20:49;;;;;;;4.72;1.00;;;;;;;;;;5055231;28;20478;-74
2021/05/25 14:23:15;;;;;;;2.35;0.90;;;;;;;;;;5055298;28;20044;-74
2021/05/25 14:25:41;;;;;;;1.85;0.82;;;;;;;;;;5054884;28;20045;-74
2021/05/25 14:28:09;;;;;;;2.10;1.00;;;;;;;;;;5055190;28;20028;-74
2021/05/25 14:30:36;;;;;;;2.00;0.77;;;;;;;;;;5055028;28;20040;-74
2021/05/25 14:33:01;;;;;;;3.05;0.88;;;;;;;;;;5054092;28;20037;-74
2021/05/25 14:35:27;;;;;;;4.40;0.88;;;;;;;;;;5053776;28;20103;-75
2021/05/25 14:37:52;;;;;;;3.65;0.98;;;;;;;;;;5054954;28;20482;-76
2021/05/25 14:40:18;;;;;;;2.70;1.52;;;;;;;;;;5053905;28;20122;-76
2021/05/25 14:42:43;;;;;;;2.90;1.10;;;;;;;;;;5054604;28;20128;-76
2021/05/25 14:45:09;;;;;;;4.63;1.10;;;;;;;;;;5053919;28;20060;-75
2021/05/25 14:47:35;;;;;;;1.60;1.00;;;;;;;;;;5052012;28;20402;-76
2021/05/25 14:50:21;;;;;;;0.93;0.82;;;;;;;;;;5045150;28;20535;-76
2021/05/25 14:52:47;;;;;;;1.40;1.13;;;;;;;;;;5043689;28;20059;-76
2021/05/25 14:55:14;;;;;;;4.57;1.30;;;;;;;;;;5042655;28;20119;-75
2021/05/25 14:57:40;;;;;;;1.60;0.68;;;;;;;;;;5045152;28;20120;-75